Time;durP1;ratioP1;P1;durP2;ratioP2;P2;SDS_P1;SDS_P2;PMS_P1;PMS_P2;Temp;Humidity;BMP_temperature;BMP_pressure;BME280_temperature;BME280_humidity;BME280_pressure;Samples;Min_cycle;Max_cycle;Signal;HPM_P1;HPM_P2
2023/02/08 00:01:52;;;;;;;1.85;1.75;;;;;;;-3.81;70.83;101993.75;5095457;28;20367;-69
2023/02/08 00:04:21;;;;;;;1.52;1.42;;;;;;;-3.94;70.51;101995.88;5094970;28;20582;-68
2023/02/08 00:06:51;;;;;;;2.40;2.25;;;;;;;-4.03;70.78;102013.31;5095504;28;20052;-68
2023/02/08 00:09:20;;;;;;;3.53;1.42;;;;;;;-4.15;70.60;102015.53;5095116;28;20123;-68
2023/02/08 00:11:49;;;;;;;1.80;1.67;;;;;;;-4.24;70.41;102017.16;5095070;28;20044;-68
2023/02/08 00:14:18;;;;;;;2.65;1.98;;;;;;;-4.26;70.75;102013.66;5094985;28;20331;-68
2023/02/08 00:16:46;;;;;;;0.63;0.63;;;;;;;-4.28;70.73;102007.66;5095212;28;20050;-69
2023/02/08 00:19:15;;;;;;;2.58;2.47;;;;;;;-4.30;70.67;102001.66;5094838;28;20044;-69
2023/02/08 00:21:44;;;;;;;2.63;2.43;;;;;;;-4.30;70.41;102000.75;5094890;28;20131;-68
2023/02/08 00:24:14;;;;;;;1.75;1.65;;;;;;;-4.33;70.30;102011.31;5094688;28;20047;-69
2023/02/08 00:26:43;;;;;;;3.72;1.38;;;;;;;-4.41;70.37;102006.31;5095375;28;20481;-68
2023/02/08 00:29:12;;;;;;;0.80;0.80;;;;;;;-4.44;70.64;102011.88;5094966;28;20044;-67
2023/02/08 00:31:40;;;;;;;2.63;2.00;;;;;;;-4.47;71.08;102006.63;5095300;28;20117;-69
2023/02/08 00:34:10;;;;;;;2.30;2.05;;;;;;;-4.48;71.00;102008.97;5094967;28;20320;-67
2023/02/08 00:36:39;;;;;;;0.75;0.75;;;;;;;-4.50;70.88;102006.34;5094911;28;20044;-68
2023/02/08 00:39:09;;;;;;;0.85;0.85;;;;;;;-4.51;71.08;102009.53;5094729;28;20070;-69
2023/02/08 00:41:39;;;;;;;6.50;3.00;;;;;;;-4.55;70.71;102009.09;5095080;28;20076;-68
2023/02/08 00:44:08;;;;;;;1.88;1.77;;;;;;;-4.48;71.01;102002.38;5093301;28;20283;-68
2023/02/08 00:46:37;;;;;;;0.70;0.70;;;;;;;-4.48;71.40;101999.88;5094694;28;20127;-68
2023/02/08 00:49:05;;;;;;;1.43;1.33;;;;;;;-4.55;71.40;102000.03;5094394;28;20048;-67
2023/02/08 00:51:34;;;;;;;2.63;2.35;;;;;;;-4.54;71.39;102006.78;5093104;28;20276;-67
2023/02/08 00:54:03;;;;;;;2.05;1.63;;;;;;;-4.62;71.10;102000.19;5094310;28;20052;-67
2023/02/08 00:56:31;;;;;;;2.43;2.27;;;;;;;-4.62;71.54;102000.19;5094182;28;20051;-67
2023/02/08 00:59:02;;;;;;;1.60;1.50;;;;;;;-4.64;71.39;101996.66;5095266;28;20293;-68
2023/02/08 01:01:30;;;;;;;1.38;1.27;;;;;;;-4.65;71.46;101989.91;5094409;28;20079;-67
2023/02/08 01:03:59;;;;;;;0.60;0.60;;;;;;;-4.66;71.38;101998.13;5094116;28;20143;-68
2023/02/08 01:06:28;;;;;;;5.07;1.30;;;;;;;-4.72;71.61;101985.06;5092896;28;20067;-68
2023/02/08 01:08:57;;;;;;;2.90;2.70;;;;;;;-4.74;71.37;101994.00;5094388;28;20070;-67
2023/02/08 01:11:26;;;;;;;0.73;0.73;;;;;;;-4.78;71.39;102001.94;5093117;28;20288;-68
2023/02/08 01:13:56;;;;;;;;;;;;;;;-4.76;71.24;101996.38;5094666;28;20055;-68
2023/02/08 01:16:29;;;;;;;0.77;0.77;;;;;;;-4.72;71.59;101987.56;5092991;28;20332;-68
2023/02/08 01:19:02;;;;;;;3.20;2.90;;;;;;;-4.70;71.56;101993.56;5094167;28;20055;-68
2023/02/08 01:21:38;;;;;;;1.60;1.50;;;;;;;-4.72;71.38;101986.69;5092683;28;20048;-68
2023/02/08 01:24:07;;;;;;;1.38;1.33;;;;;;;-4.92;71.25;101987.28;5093831;28;20044;-68
2023/02/08 01:26:36;;;;;;;0.47;0.47;;;;;;;-4.90;71.44;101995.75;5094009;28;20069;-68
2023/02/08 01:29:07;;;;;;;1.98;1.33;;;;;;;-4.96;71.45;102010.09;5076182;28;20050;-67
2023/02/08 01:31:38;;;;;;;;;;;;;;;-5.07;71.35;102010.66;5094356;28;20036;-68
2023/02/08 01:34:08;;;;;;;3.35;3.13;;;;;;;-5.12;71.01;102002.75;5094345;28;19924;-68
2023/02/08 01:36:38;;;;;;;1.20;1.13;;;;;;;-5.17;71.81;102003.91;5092521;28;20093;-68
2023/02/08 01:39:10;;;;;;;1.20;1.05;;;;;;;-5.25;71.83;102008.84;5093641;28;20052;-67
2023/02/08 01:41:42;;;;;;;0.40;0.40;;;;;;;-5.31;72.12;102018.19;5092822;28;20036;-67
2023/02/08 01:44:40;;;;;;;0.52;0.52;;;;;;;-5.37;72.08;102012.63;5092449;28;20051;-67
2023/02/08 01:47:11;;;;;;;0.73;0.73;;;;;;;-5.31;71.90;102023.19;5051343;28;20048;-67
2023/02/08 01:49:41;;;;;;;2.20;1.58;;;;;;;-5.31;72.37;102018.19;5092703;28;20044;-67
2023/02/08 01:52:14;;;;;;;0.57;0.57;;;;;;;-5.27;72.20;102025.22;5093520;28;20085;-66
2023/02/08 01:54:48;;;;;;;3.20;3.03;;;;;;;-5.32;72.11;102019.78;5092660;28;20101;-68
2023/02/08 01:57:21;;;;;;;5.78;2.15;;;;;;;-5.52;71.91;102017.81;5094072;28;20532;-66
2023/02/08 01:59:54;;;;;;;0.60;0.60;;;;;;;-5.66;72.07;102015.56;5093666;28;20043;-67
2023/02/08 02:02:26;;;;;;;1.05;1.05;;;;;;;-5.61;72.11;102016.00;5092289;28;20054;-66
2023/02/08 02:04:56;;;;;;;2.20;1.95;;;;;;;-5.54;72.40;102025.84;5093227;28;20135;-67
2023/02/08 02:07:30;;;;;;;0.50;0.50;;;;;;;-5.53;72.25;102021.03;5092971;28;20044;-67
2023/02/08 02:10:07;;;;;;;0.68;0.68;;;;;;;-5.53;72.21;102025.13;5093624;28;20444;-66
2023/02/08 02:12:39;;;;;;;2.20;1.58;;;;;;;-5.54;72.40;102024.25;5092469;28;20414;-66
2023/02/08 02:15:09;;;;;;;2.55;2.40;;;;;;;-5.59;72.61;102020.41;5094276;28;20048;-67
2023/02/08 02:17:40;;;;;;;1.38;1.27;;;;;;;-5.56;72.36;102023.22;5096442;28;20039;-67
2023/02/08 02:20:17;;;;;;;0.82;0.82;;;;;;;-5.54;72.46;102020.88;5096267;28;20138;-67
2023/02/08 02:23:10;;;;;;;2.13;2.03;;;;;;;-5.57;72.42;102021.47;5097475;28;20557;-66
2023/02/08 02:26:02;;;;;;;1.52;1.40;;;;;;;-5.57;72.21;102021.47;5086981;28;20155;-66
2023/02/08 02:29:04;;;;;;;2.38;1.92;;;;;;;-5.52;72.51;102022.78;5097427;28;20054;-67
2023/02/08 02:31:57;;;;;;;0.93;0.93;;;;;;;-5.65;72.39;102024.78;5091120;28;20047;-67
2023/02/08 02:34:37;;;;;;;4.45;4.05;;;;;;;-5.80;72.31;102033.19;5096966;28;20043;-67
2023/02/08 02:37:17;;;;;;;1.52;1.42;;;;;;;-5.83;72.52;102035.34;5096079;28;20040;-67
2023/02/08 02:40:00;;;;;;;2.05;1.95;;;;;;;-5.91;72.35;102032.84;5097064;28;20055;-66
2023/02/08 02:45:27;;;;;;;0.47;0.47;;;;;;;-5.79;72.63;102032.47;5096727;28;20040;-67
2023/02/08 02:48:05;;;;;;;4.78;2.67;;;;;;;-5.80;72.52;102033.19;5095885;28;20044;-67
2023/02/08 02:50:38;;;;;;;1.00;1.00;;;;;;;-5.83;72.46;102042.81;5096826;28;20507;-67
2023/02/08 02:53:13;;;;;;;0.47;0.47;;;;;;;-5.81;72.58;102031.44;5096645;28;20486;-66
2023/02/08 02:55:45;;;;;;;0.68;0.68;;;;;;;-5.83;72.58;102037.84;5096936;28;20044;-66
2023/02/08 02:58:16;;;;;;;3.70;3.38;;;;;;;-5.87;72.46;102043.28;5096875;28;20074;-66
2023/02/08 03:00:53;;;;;;;1.60;1.27;;;;;;;-5.99;72.42;102051.06;5096565;28;20044;-66
2023/02/08 03:03:26;;;;;;;1.42;1.33;;;;;;;-5.98;72.68;102051.25;5095575;28;20076;-66
2023/02/08 03:06:01;;;;;;;0.52;0.52;;;;;;;-5.94;72.34;102053.31;5096456;28;20052;-67
2023/02/08 03:08:57;;;;;;;0.93;0.88;;;;;;;-5.91;72.69;102058.59;5096423;28;20048;-66
2023/02/08 03:11:29;;;;;;;3.03;2.70;;;;;;;-5.92;72.66;102051.84;5096440;28;20055;-66
2023/02/08 03:14:27;;;;;;;1.33;1.23;;;;;;;-5.89;72.47;102057.16;5096818;28;20421;-66
2023/02/08 03:17:21;;;;;;;3.40;3.08;;;;;;;-5.91;72.43;102056.13;5096415;28;20072;-67
2023/02/08 03:20:01;;;;;;;3.08;2.58;;;;;;;-5.86;72.34;102066.53;5086021;28;20044;-66
2023/02/08 03:22:40;;;;;;;14.27;4.82;;;;;;;-5.88;72.36;102077.94;5096285;28;20085;-66
2023/02/08 03:25:17;;;;;;;1.15;1.15;;;;;;;-6.02;72.35;102081.47;5096037;28;20048;-66
2023/02/08 03:27:56;;;;;;;2.22;2.13;;;;;;;-6.05;72.33;102072.81;5095200;28;20048;-66
2023/02/08 03:30:32;;;;;;;0.60;0.60;;;;;;;-6.00;72.42;102076.66;5094760;28;20048;-66
2023/02/08 03:33:07;;;;;;;1.20;1.15;;;;;;;-6.00;72.28;102085.00;5095821;28;20048;-66
2023/02/08 03:35:42;;;;;;;3.25;3.05;;;;;;;-6.04;72.18;102075.44;5095803;28;20054;-66
2023/02/08 03:38:16;;;;;;;2.92;2.25;;;;;;;-6.13;72.22;102089.44;5095844;28;20123;-66
2023/02/08 03:40:48;;;;;;;0.60;0.60;;;;;;;-6.20;72.44;102079.56;5095916;28;20036;-66
2023/02/08 03:43:22;;;;;;;2.38;2.25;;;;;;;-6.26;72.27;102076.44;5096164;28;20556;-66
2023/02/08 03:45:54;;;;;;;1.45;1.40;;;;;;;-6.28;72.25;102082.84;5095934;28;20090;-66
2023/02/08 03:48:27;;;;;;;1.98;1.88;;;;;;;-6.31;72.22;102087.53;5095981;28;20048;-66
2023/02/08 03:51:01;;;;;;;1.38;1.30;;;;;;;-6.34;72.38;102083.13;5095843;28;20067;-66
2023/02/08 03:53:37;;;;;;;1.45;1.35;;;;;;;-6.28;72.60;102077.91;5095403;28;20047;-66
2023/02/08 03:56:11;;;;;;;0.90;0.90;;;;;;;-6.24;72.43;102070.91;5094223;28;20044;-66
2023/02/08 03:58:45;;;;;;;1.27;1.20;;;;;;;-6.23;72.52;102071.81;5095446;28;20494;-66
2023/02/08 04:01:19;;;;;;;0.50;0.50;;;;;;;-6.22;72.53;102076.06;5095217;28;20091;-66
2023/02/08 04:03:52;;;;;;;2.15;2.05;;;;;;;-6.26;72.34;102076.44;5095047;28;20056;-66
2023/02/08 04:06:23;;;;;;;0.90;0.90;;;;;;;-6.22;72.46;102083.50;5095591;28;20043;-66
2023/02/08 04:08:52;;;;;;;7.38;6.78;;;;;;;-6.26;72.39;102073.97;5095481;28;20114;-65
2023/02/08 04:11:21;;;;;;;2.50;2.35;;;;;;;-6.34;72.56;102082.25;5095106;28;20044;-66
2023/02/08 04:13:49;;;;;;;2.72;2.47;;;;;;;-6.36;72.38;102072.13;5093520;28;20044;-66
2023/02/08 04:16:18;;;;;;;1.87;1.70;;;;;;;-6.33;72.36;102074.03;5095058;28;20058;-65
2023/02/08 04:18:47;;;;;;;1.30;1.17;;;;;;;-6.25;72.48;102078.22;5094943;28;20051;-65
2023/02/08 04:21:15;;;;;;;5.35;3.55;;;;;;;-6.36;72.12;102086.16;5094826;28;20048;-65
2023/02/08 04:23:46;;;;;;;8.32;3.67;;;;;;;-6.56;72.22;102098.97;5095135;28;20139;-66
2023/02/08 04:26:15;;;;;;;0.90;0.90;;;;;;;-6.51;72.62;102084.56;5094829;28;20155;-66
2023/02/08 04:28:43;;;;;;;1.47;1.37;;;;;;;-6.43;72.61;102092.06;5095164;28;20127;-65
2023/02/08 04:31:12;;;;;;;1.00;1.00;;;;;;;-6.40;72.52;102092.41;5094698;28;20283;-66
2023/02/08 04:33:41;;;;;;;1.42;1.33;;;;;;;-6.34;72.37;102087.22;5094647;28;20044;-66
2023/02/08 04:36:10;;;;;;;0.55;0.55;;;;;;;-6.43;72.91;102071.34;5094655;28;20093;-66
2023/02/08 04:38:39;;;;;;;1.05;1.00;;;;;;;-6.56;72.28;102086.56;5094797;28;20197;-66
2023/02/08 04:41:10;;;;;;;2.58;2.38;;;;;;;-6.55;72.24;102080.00;5093351;28;20040;-66
2023/02/08 04:43:39;;;;;;;0.52;0.52;;;;;;;-6.49;72.25;102080.63;5074287;28;20037;-66
2023/02/08 04:46:08;;;;;;;1.80;1.70;;;;;;;-6.55;72.39;102082.50;5082054;28;20044;-67
2023/02/08 04:48:37;;;;;;;3.20;2.33;;;;;;;-6.47;72.40;102089.13;5074046;28;20094;-66
2023/02/08 04:51:06;;;;;;;0.30;0.30;;;;;;;-6.46;72.28;102084.34;5074409;28;20127;-65
2023/02/08 04:53:35;;;;;;;0.60;0.60;;;;;;;-6.50;72.41;102086.34;5074294;28;20064;-65
2023/02/08 04:56:04;;;;;;;4.68;4.05;;;;;;;-6.48;72.33;102077.44;5074003;28;20044;-66
2023/02/08 04:58:34;;;;;;;0.88;0.88;;;;;;;-6.43;72.40;102076.31;5074552;28;20048;-65
2023/02/08 05:01:06;;;;;;;3.33;2.83;;;;;;;-6.44;72.38;102074.53;5074181;28;20048;-66
2023/02/08 05:03:35;;;;;;;1.40;1.33;;;;;;;-6.43;72.33;102073.84;5073964;28;20142;-66
2023/02/08 05:06:04;;;;;;;0.80;0.80;;;;;;;-6.49;71.99;102070.69;5073942;28;20048;-66
2023/02/08 05:08:33;;;;;;;1.23;1.13;;;;;;;-6.51;72.52;102064.69;5074169;28;20464;-66
2023/02/08 05:11:02;;;;;;;5.43;1.98;;;;;;;-6.45;72.44;102072.78;5074054;28;20123;-66
2023/02/08 05:13:31;;;;;;;0.93;0.93;;;;;;;-6.47;72.39;102080.06;5074626;28;20051;-66
2023/02/08 05:16:01;;;;;;;0.45;0.45;;;;;;;-6.44;72.59;102084.47;5073691;28;20107;-65
2023/02/08 05:18:30;;;;;;;1.98;1.75;;;;;;;-6.44;72.42;102084.47;5073752;28;20133;-66
2023/02/08 05:21:02;;;;;;;1.27;1.20;;;;;;;-6.38;72.87;102090.09;5073920;28;20048;-65
2023/02/08 05:23:32;;;;;;;1.13;1.08;;;;;;;-6.33;72.78;102083.97;5091564;28;20040;-65
2023/02/08 05:26:00;;;;;;;7.18;3.08;;;;;;;-6.34;72.75;102085.63;5093991;28;20401;-65
2023/02/08 05:28:29;;;;;;;5.43;4.93;;;;;;;-6.33;72.93;102093.91;5079155;28;20109;-65
2023/02/08 05:30:58;;;;;;;1.95;1.85;;;;;;;-6.32;73.23;102095.69;5073473;28;20049;-66
2023/02/08 05:33:28;;;;;;;9.90;5.15;;;;;;;-6.31;73.31;102102.44;5073541;28;20516;-65
2023/02/08 05:35:57;;;;;;;0.98;0.98;;;;;;;-6.31;73.08;102102.44;5073488;28;20048;-65
2023/02/08 05:38:27;;;;;;;0.68;0.68;;;;;;;-6.29;73.30;102098.50;5072270;28;20041;-65
2023/02/08 05:40:55;;;;;;;0.70;0.70;;;;;;;-6.23;73.46;102106.59;5073707;28;20049;-66
2023/02/08 05:43:24;;;;;;;2.88;2.67;;;;;;;-6.17;73.30;102112.19;5073644;28;20394;-66
2023/02/08 05:45:53;;;;;;;0.40;0.40;;;;;;;-6.13;73.34;102111.78;5076124;28;20398;-66
2023/02/08 05:48:22;;;;;;;1.58;1.50;;;;;;;-6.12;73.40;102126.00;5081322;28;20410;-66
2023/02/08 05:50:52;;;;;;;1.75;1.65;;;;;;;-6.08;73.23;102133.03;5076736;28;20463;-66
2023/02/08 05:53:21;;;;;;;3.45;2.28;;;;;;;-6.07;73.44;102134.81;5077581;28;20123;-66
2023/02/08 05:55:50;;;;;;;1.50;1.40;;;;;;;-6.06;73.25;102121.63;5082345;28;20127;-66
2023/02/08 05:58:18;;;;;;;0.40;0.40;;;;;;;-6.07;73.48;102121.50;5097642;28;20051;-66
2023/02/08 06:00:47;;;;;;;0.60;0.60;;;;;;;-6.09;73.35;102126.28;5097871;28;20688;-66
2023/02/08 06:03:16;;;;;;;0.52;0.52;;;;;;;-6.04;73.01;102117.69;5096168;28;20430;-66
2023/02/08 06:05:45;;;;;;;2.28;2.05;;;;;;;-6.01;73.25;102120.50;5094321;28;20131;-66
2023/02/08 06:08:15;;;;;;;0.43;0.43;;;;;;;-6.08;73.44;102112.25;5086037;28;20075;-66
2023/02/08 06:10:45;;;;;;;1.42;1.33;;;;;;;-5.95;73.47;102131.06;5077484;28;20044;-66
2023/02/08 06:13:14;;;;;;;;;;;;;;;-5.95;73.65;102131.06;5077605;28;20083;-66
2023/02/08 06:15:43;;;;;;;0.40;0.40;;;;;;;-5.92;73.61;102141.34;5081366;28;20274;-66
2023/02/08 06:18:12;;;;;;;1.52;1.42;;;;;;;-5.87;73.82;102134.34;5097500;28;20121;-65
2023/02/08 06:20:41;;;;;;;0.50;0.50;;;;;;;-5.83;73.89;102136.41;5097859;28;20157;-66
2023/02/08 06:23:10;;;;;;;0.80;0.80;;;;;;;-5.81;73.85;102128.41;5096071;28;20036;-66
2023/02/08 06:25:40;;;;;;;0.60;0.60;;;;;;;-5.80;73.66;102135.13;5094927;28;20044;-66
2023/02/08 06:28:10;;;;;;;6.13;3.90;;;;;;;-5.78;73.91;102123.72;5085934;28;20402;-66
2023/02/08 06:30:38;;;;;;;;;;;;;;;-5.72;73.76;102130.94;5077162;28;20128;-66
2023/02/08 06:33:08;;;;;;;5.18;4.78;;;;;;;-5.75;73.61;102131.50;5075696;28;19981;-65
2023/02/08 06:35:37;;;;;;;1.25;1.20;;;;;;;-5.74;73.50;102130.78;5080168;28;20420;-65
2023/02/08 06:38:05;;;;;;;1.42;1.38;;;;;;;-5.76;73.46;102129.72;5096714;28;20109;-65
2023/02/08 06:40:34;;;;;;;1.83;1.45;;;;;;;-5.77;73.50;102147.88;5096923;28;20044;-65
2023/02/08 06:43:04;;;;;;;1.20;1.17;;;;;;;-5.88;73.58;102148.41;5097136;28;20382;-65
2023/02/08 06:45:33;;;;;;;1.48;1.38;;;;;;;-5.83;73.76;102138.91;5094906;28;20293;-65
2023/02/08 06:48:02;;;;;;;1.63;1.52;;;;;;;-5.74;73.84;102152.28;5085740;28;20048;-65
2023/02/08 06:50:31;;;;;;;3.42;3.22;;;;;;;-5.75;73.80;102151.38;5076695;28;20052;-65
2023/02/08 06:53:00;;;;;;;9.48;2.97;;;;;;;-5.67;73.63;102158.03;5076625;28;20372;-65
2023/02/08 06:55:29;;;;;;;2.05;1.95;;;;;;;-5.62;73.78;102154.44;5078483;28;20076;-66
2023/02/08 06:57:58;;;;;;;0.40;0.40;;;;;;;-5.61;73.67;102157.75;5095490;28;20516;-66
2023/02/08 07:00:28;;;;;;;1.15;1.15;;;;;;;-5.57;73.80;102170.69;5096333;28;20280;-66
2023/02/08 07:02:59;;;;;;;0.73;0.73;;;;;;;-5.56;73.45;102164.97;5096732;28;20493;-66
2023/02/08 07:05:28;;;;;;;0.55;0.55;;;;;;;-5.55;73.49;102181.69;5096296;28;20058;-65
2023/02/08 07:07:57;;;;;;;1.15;1.15;;;;;;;-5.67;73.57;102175.44;5096248;28;20097;-66
2023/02/08 07:10:26;;;;;;;0.40;0.40;;;;;;;-5.69;73.73;102176.00;5096349;28;20139;-66
2023/02/08 07:12:55;;;;;;;0.80;0.80;;;;;;;-5.56;73.78;102169.97;5095125;28;20097;-66
2023/02/08 07:15:23;;;;;;;0.70;0.70;;;;;;;-5.49;73.59;102162.41;5096234;28;20050;-66
2023/02/08 07:17:54;;;;;;;1.35;1.27;;;;;;;-5.53;73.28;102149.50;5096543;28;20539;-66
2023/02/08 07:20:23;;;;;;;2.08;1.95;;;;;;;-5.50;73.39;102153.19;5096096;28;20051;-66
2023/02/08 07:22:51;;;;;;;1.42;1.35;;;;;;;-5.44;73.40;102151.31;5095912;28;20044;-66
2023/02/08 07:25:20;;;;;;;0.77;0.75;;;;;;;-5.40;73.65;102156.59;5096245;28;20371;-66
2023/02/08 07:27:49;;;;;;;4.10;2.20;;;;;;;-5.44;73.29;102166.25;5096300;28;20070;-66
2023/02/08 07:30:18;;;;;;;1.02;1.02;;;;;;;-5.43;73.57;102163.03;5095868;28;20047;-66
2023/02/08 07:32:47;;;;;;;0.93;0.93;;;;;;;-5.36;73.47;102159.56;5089423;28;20054;-66
2023/02/08 07:35:17;;;;;;;2.45;2.30;;;;;;;-5.20;73.57;102166.94;5095241;28;20591;-66
2023/02/08 07:37:46;;;;;;;3.00;2.80;;;;;;;-5.09;73.19;102161.47;5096079;28;20387;-66
2023/02/08 07:40:15;;;;;;;0.70;0.70;;;;;;;-5.03;73.50;102167.03;5095731;28;20051;-66
2023/02/08 07:42:44;;;;;;;1.48;1.38;;;;;;;-4.94;73.41;102175.44;5095756;28;20379;-66
2023/02/08 07:45:24;;;;;;;1.48;1.38;;;;;;;-4.70;73.38;102167.91;5095702;28;20050;-66
2023/02/08 07:47:53;;;;;;;0.98;0.95;;;;;;;-4.44;73.08;102175.50;5094773;28;20036;-66
2023/02/08 07:50:23;;;;;;;0.50;0.50;;;;;;;-4.29;72.70;102167.88;5096419;28;20135;-66
2023/02/08 07:52:52;;;;;;;9.65;3.65;;;;;;;-4.16;72.97;102178.34;5094744;28;20036;-66
2023/02/08 07:55:20;;;;;;;1.43;1.33;;;;;;;-4.32;72.62;102177.53;5093552;28;20127;-66
2023/02/08 07:57:50;;;;;;;0.85;0.85;;;;;;;-4.34;72.81;102179.00;5088539;28;20048;-66
2023/02/08 08:00:19;;;;;;;4.90;4.43;;;;;;;-4.46;72.19;102182.78;5090457;28;20126;-67
2023/02/08 08:02:50;;;;;;;1.58;1.48;;;;;;;-4.48;72.68;102198.31;5095506;28;20132;-66
2023/02/08 08:05:19;;;;;;;1.98;0.95;;;;;;;-4.47;72.72;102190.13;5095261;28;20054;-66
2023/02/08 08:07:50;;;;;;;4.90;2.75;;;;;;;-4.37;72.50;102188.72;5092462;28;20501;-66
2023/02/08 08:10:18;;;;;;;1.20;1.15;;;;;;;-4.31;72.75;102191.78;5080912;28;20051;-66
2023/02/08 08:12:47;;;;;;;2.33;2.22;;;;;;;-4.24;72.00;102196.63;5084472;28;20068;-67
2023/02/08 08:15:16;;;;;;;0.95;0.95;;;;;;;-4.20;72.68;102193.69;5089730;28;20067;-67
2023/02/08 08:17:45;;;;;;;2.70;1.58;;;;;;;-4.09;72.22;102193.16;5088314;28;20075;-67
2023/02/08 08:20:14;;;;;;;2.78;1.08;;;;;;;-4.08;72.35;102194.91;5095037;28;20406;-66
2023/02/08 08:22:43;;;;;;;2.37;2.17;;;;;;;-4.04;72.21;102200.19;5095162;28;20040;-67
2023/02/08 08:25:13;;;;;;;0.60;0.60;;;;;;;-3.94;71.86;102202.84;5094826;28;20044;-67
2023/02/08 08:27:42;;;;;;;0.68;0.68;;;;;;;-3.96;72.17;102200.22;5095007;28;20044;-67
2023/02/08 08:30:14;;;;;;;3.35;3.13;;;;;;;-3.95;72.27;102201.06;5094994;28;20048;-67
2023/02/08 08:32:43;;;;;;;2.55;2.35;;;;;;;-3.87;71.69;102210.19;5094699;28;20075;-67
2023/02/08 08:35:12;;;;;;;1.30;1.20;;;;;;;-3.83;71.91;102214.72;5094693;28;20040;-67
2023/02/08 08:37:41;;;;;;;3.80;1.65;;;;;;;-3.80;72.05;102205.06;5094845;28;20048;-67
2023/02/08 08:40:12;;;;;;;1.35;1.30;;;;;;;-3.78;71.68;102201.97;5094392;28;20048;-67
2023/02/08 08:42:40;;;;;;;2.25;2.15;;;;;;;-3.69;71.89;102201.97;5094529;28;20048;-67
2023/02/08 08:45:10;;;;;;;0.60;0.60;;;;;;;-3.58;71.88;102208.88;5094605;28;20480;-67
2023/02/08 08:47:39;;;;;;;2.05;1.92;;;;;;;-3.46;71.66;102212.56;5090899;28;20048;-68
2023/02/08 08:50:08;;;;;;;7.70;4.07;;;;;;;-3.37;71.92;102215.91;5085694;28;20048;-67
2023/02/08 08:52:39;;;;;;;;;;;;;;;-3.21;71.91;102211.63;5084469;28;20272;-68
2023/02/08 08:55:08;;;;;;;4.38;2.70;;;;;;;-3.06;71.32;102212.19;5084692;28;19973;-68
2023/02/08 08:57:38;;;;;;;2.95;2.70;;;;;;;-2.98;71.13;102214.66;5083656;28;20056;-68
2023/02/08 09:00:08;;;;;;;7.22;1.55;;;;;;;-2.87;71.62;102211.53;5082873;28;20045;-69
2023/02/08 09:02:38;;;;;;;8.02;2.35;;;;;;;-2.75;70.90;102220.19;5088097;28;20401;-69
2023/02/08 09:05:07;;;;;;;0.60;0.60;;;;;;;-2.69;70.83;102214.88;5094269;28;20048;-68
2023/02/08 09:07:36;;;;;;;0.85;0.85;;;;;;;-2.51;70.92;102218.16;5094052;28;20071;-68
2023/02/08 09:10:06;;;;;;;4.57;2.05;;;;;;;-2.34;70.70;102218.09;5092452;28;20044;-68
2023/02/08 09:12:34;;;;;;;1.75;1.65;;;;;;;-2.19;70.49;102219.47;5085360;28;20048;-69
2023/02/08 09:15:05;;;;;;;1.80;1.70;;;;;;;-2.09;70.27;102219.56;5084543;28;20126;-69
2023/02/08 09:17:34;;;;;;;3.45;3.15;;;;;;;-1.95;70.02;102215.78;5084375;28;20483;-70
2023/02/08 09:20:03;;;;;;;0.50;0.50;;;;;;;-1.85;69.88;102214.25;5093433;28;20059;-70
2023/02/08 09:22:32;;;;;;;0.80;0.80;;;;;;;-1.74;69.95;102217.69;5093863;28;20060;-70
2023/02/08 09:25:01;;;;;;;0.57;0.57;;;;;;;-1.60;69.62;102222.28;5093688;28;20036;-70
2023/02/08 09:27:30;;;;;;;2.83;1.63;;;;;;;-1.51;69.71;102213.06;5093854;28;20291;-70
2023/02/08 09:29:59;;;;;;;27.33;4.40;;;;;;;-1.40;69.20;102218.31;5093651;28;20047;-70
2023/02/08 09:32:32;;;;;;;1.00;1.00;;;;;;;-1.43;68.54;102199.63;5093992;28;20090;-70
2023/02/08 09:35:02;;;;;;;1.52;1.42;;;;;;;-1.29;68.62;102215.81;5093742;28;20355;-70
2023/02/08 09:37:30;;;;;;;2.45;2.25;;;;;;;-1.11;68.45;102214.94;5093704;28;20055;-70
2023/02/08 09:40:00;;;;;;;1.73;1.50;;;;;;;-0.90;68.56;102219.28;5093536;28;20086;-70
2023/02/08 09:42:41;;;;;;;1.23;1.15;;;;;;;-0.88;68.19;102222.78;5092630;28;20127;-70
2023/02/08 09:45:31;;;;;;;5.28;1.88;;;;;;;-0.90;67.98;102225.16;5091435;28;20040;-70
2023/02/08 09:48:14;;;;;;;0.95;0.68;;;;;;;-0.88;67.56;102222.78;5093804;28;20048;-70
2023/02/08 09:50:49;;;;;;;3.47;2.70;;;;;;;-0.62;67.39;102218.34;5090591;28;20139;-70
2023/02/08 09:53:22;;;;;;;0.93;0.93;;;;;;;-0.32;67.01;102223.44;5084373;28;20044;-69
2023/02/08 09:55:55;;;;;;;2.72;2.53;;;;;;;-0.14;66.64;102217.41;5087559;28;20040;-69
2023/02/08 09:58:35;;;;;;;0.70;0.70;;;;;;;0.07;66.17;102222.44;5073177;28;20052;-70
2023/02/08 10:01:07;;;;;;;2.40;2.20;;;;;;;0.32;66.32;102216.13;5076352;28;20493;-68
2023/02/08 10:03:38;;;;;;;6.88;1.95;;;;;;;0.64;65.42;102217.97;5085451;28;20109;-68
2023/02/08 10:06:12;;;;;;;2.80;1.90;;;;;;;0.72;65.12;102213.50;5073220;28;20569;-68
2023/02/08 10:08:42;;;;;;;1.25;1.02;;;;;;;0.69;64.39;102220.84;5073688;28;20166;-69
2023/02/08 10:11:30;;;;;;;0.40;0.40;;;;;;;0.60;63.20;102220.13;5078806;28;20052;-68
2023/02/08 10:14:28;;;;;;;0.30;0.30;;;;;;;0.64;63.09;102217.09;5093325;28;20086;-69
2023/02/08 10:17:09;;;;;;;1.40;1.30;;;;;;;0.67;62.52;102217.34;5093434;28;20048;-70
2023/02/08 10:19:52;;;;;;;0.60;0.60;;;;;;;0.85;62.45;102213.75;5093524;28;20505;-67
2023/02/08 10:22:31;;;;;;;8.77;1.75;;;;;;;1.26;61.83;102215.31;5091575;28;20051;-68
2023/02/08 10:25:20;;;;;;;1.85;0.80;;;;;;;1.43;61.30;102208.19;5073207;28;20127;-67
2023/02/08 10:28:04;;;;;;;0.47;0.47;;;;;;;1.20;59.76;102204.78;5072861;28;20040;-70
2023/02/08 10:30:44;;;;;;;0.60;0.60;;;;;;;1.06;59.09;102200.31;5083999;28;20577;-69
2023/02/08 10:33:20;;;;;;;0.50;0.50;;;;;;;1.08;57.96;102202.97;5093141;28;20131;-70
2023/02/08 10:35:52;;;;;;;4.32;2.55;;;;;;;1.10;57.50;102197.31;5094256;28;20059;-70
2023/02/08 10:38:26;;;;;;;0.40;0.40;;;;;;;1.23;57.02;102199.09;5096235;28;20089;-68
2023/02/08 10:41:09;;;;;;;0.40;0.40;;;;;;;1.40;56.83;102197.88;5091030;28;20040;-69
2023/02/08 10:43:43;;;;;;;4.07;2.67;;;;;;;1.66;57.23;102201.59;5095622;28;20127;-69
2023/02/08 10:46:22;;;;;;;1.80;1.67;;;;;;;1.75;56.21;102196.38;5096743;28;20127;-68
2023/02/08 10:49:07;;;;;;;0.80;0.80;;;;;;;1.87;55.94;102199.81;5096981;28;20453;-67
2023/02/08 10:51:37;;;;;;;0.93;0.93;;;;;;;2.25;55.54;102195.97;5096199;28;20696;-69
2023/02/08 10:54:06;;;;;;;1.70;1.60;;;;;;;2.38;55.75;102196.06;5096765;28;20044;-70
2023/02/08 10:56:41;;;;;;;0.63;0.63;;;;;;;2.43;55.13;102188.81;5096496;28;20051;-69
2023/02/08 10:59:20;;;;;;;0.63;0.63;;;;;;;2.44;54.45;102183.91;5096582;28;20051;-70
2023/02/08 11:01:49;;;;;;;0.70;0.70;;;;;;;2.54;53.96;102186.31;5096706;28;20056;-67
2023/02/08 11:04:19;;;;;;;1.10;1.10;;;;;;;2.65;53.59;102185.44;5096246;28;20486;-69
2023/02/08 11:06:50;;;;;;;0.28;0.28;;;;;;;2.59;53.21;102185.00;5095271;28;20048;-71
2023/02/08 11:09:26;;;;;;;1.52;1.42;;;;;;;2.54;53.65;102181.25;5095170;28;20044;-69
2023/02/08 11:11:56;;;;;;;2.90;1.98;;;;;;;2.42;52.44;102180.41;5095730;28;20363;-70
2023/02/08 11:14:30;;;;;;;1.88;1.63;;;;;;;2.58;52.85;102188.28;5096531;28;20055;-70
2023/02/08 11:17:26;;;;;;;;;;;;;;;2.61;52.21;102183.47;5095847;28;20508;-70
2023/02/08 11:19:56;;;;;;;2.35;1.92;;;;;;;2.77;52.16;102184.53;5096463;28;19989;-71
2023/02/08 11:22:30;;;;;;;0.30;0.30;;;;;;;3.05;52.96;102183.16;5096393;28;20047;-69
2023/02/08 11:25:02;;;;;;;1.00;0.90;;;;;;;2.99;52.23;102188.69;5096016;28;20127;-68
2023/02/08 11:27:33;;;;;;;0.98;0.95;;;;;;;2.97;52.03;102184.31;5095826;28;20502;-68
2023/02/08 11:30:23;;;;;;;0.40;0.40;;;;;;;3.12;51.71;102185.38;5095969;28;20068;-68
2023/02/08 11:33:18;;;;;;;1.50;1.40;;;;;;;3.03;50.73;102190.63;5089847;28;20044;-68
2023/02/08 11:36:04;;;;;;;0.88;0.80;;;;;;;3.03;50.99;102179.66;5086626;28;20037;-68
2023/02/08 11:38:37;;;;;;;1.73;1.63;;;;;;;3.11;51.21;102179.44;5087517;28;20093;-68
2023/02/08 11:41:15;;;;;;;16.25;2.92;;;;;;;3.61;51.30;102177.81;5094608;28;20032;-68
2023/02/08 11:43:56;;;;;;;1.90;1.80;;;;;;;3.80;50.47;102163.13;5095952;28;20478;-71
2023/02/08 11:46:28;;;;;;;2.95;2.25;;;;;;;3.80;50.53;102163.13;5095608;28;20521;-70
2023/02/08 11:48:57;;;;;;;0.25;0.25;;;;;;;3.87;49.59;102161.88;5095203;28;20040;-69
2023/02/08 11:51:31;;;;;;;0.40;0.40;;;;;;;3.84;49.88;102160.00;5095520;28;20130;-69
2023/02/08 11:54:02;;;;;;;1.13;1.13;;;;;;;3.96;49.14;102165.00;5093069;28;20782;-70